sensor_id;sensor_type;location;lat;lon;timestamp;P1;durP1;ratioP1;P2;durP2;ratioP2
27428;SDS011;14881;48.092;11.574;2023-02-14T00:00:57;114.18;;;28.63;;
27428;SDS011;14881;48.092;11.574;2023-02-14T00:03:32;58.45;;;27.55;;
27428;SDS011;14881;48.092;11.574;2023-02-14T00:06:05;61.65;;;29.02;;
27428;SDS011;14881;48.092;11.574;2023-02-14T00:08:34;84.88;;;28.90;;
27428;SDS011;14881;48.092;11.574;2023-02-14T00:11:02;76.15;;;28.55;;
27428;SDS011;14881;48.092;11.574;2023-02-14T00:13:30;297.25;;;35.88;;
27428;SDS011;14881;48.092;11.574;2023-02-14T00:15:58;63.40;;;29.83;;
27428;SDS011;14881;48.092;11.574;2023-02-14T00:18:25;50.90;;;28.30;;
27428;SDS011;14881;48.092;11.574;2023-02-14T00:21:14;53.63;;;29.90;;
27428;SDS011;14881;48.092;11.574;2023-02-14T00:23:42;54.08;;;30.00;;
27428;SDS011;14881;48.092;11.574;2023-02-14T00:26:13;77.28;;;30.48;;
27428;SDS011;14881;48.092;11.574;2023-02-14T00:28:41;64.72;;;31.55;;
27428;SDS011;14881;48.092;11.574;2023-02-14T00:31:11;65.70;;;29.52;;
27428;SDS011;14881;48.092;11.574;2023-02-14T00:33:39;104.78;;;30.52;;
27428;SDS011;14881;48.092;11.574;2023-02-14T00:36:08;54.75;;;29.38;;
27428;SDS011;14881;48.092;11.574;2023-02-14T00:38:38;54.75;;;30.42;;
27428;SDS011;14881;48.092;11.574;2023-02-14T00:41:06;58.17;;;29.67;;
27428;SDS011;14881;48.092;11.574;2023-02-14T00:43:33;61.40;;;28.92;;
27428;SDS011;14881;48.092;11.574;2023-02-14T00:46:01;60.17;;;28.98;;
27428;SDS011;14881;48.092;11.574;2023-02-14T00:48:29;68.55;;;28.27;;
27428;SDS011;14881;48.092;11.574;2023-02-14T00:50:57;55.50;;;27.33;;
27428;SDS011;14881;48.092;11.574;2023-02-14T00:53:25;68.05;;;27.65;;
27428;SDS011;14881;48.092;11.574;2023-02-14T00:55:54;62.65;;;27.70;;
27428;SDS011;14881;48.092;11.574;2023-02-14T00:58:22;55.03;;;25.33;;
27428;SDS011;14881;48.092;11.574;2023-02-14T01:00:50;53.55;;;28.05;;
27428;SDS011;14881;48.092;11.574;2023-02-14T01:03:19;46.13;;;26.60;;
27428;SDS011;14881;48.092;11.574;2023-02-14T01:05:47;48.83;;;26.50;;
27428;SDS011;14881;48.092;11.574;2023-02-14T01:08:15;49.00;;;28.70;;
27428;SDS011;14881;48.092;11.574;2023-02-14T01:10:43;51.13;;;28.00;;
27428;SDS011;14881;48.092;11.574;2023-02-14T01:13:13;47.80;;;27.38;;
27428;SDS011;14881;48.092;11.574;2023-02-14T01:15:41;50.00;;;26.70;;
27428;SDS011;14881;48.092;11.574;2023-02-14T01:18:13;50.00;;;26.50;;
27428;SDS011;14881;48.092;11.574;2023-02-14T01:20:43;48.65;;;27.45;;
27428;SDS011;14881;48.092;11.574;2023-02-14T01:23:11;44.20;;;25.58;;
27428;SDS011;14881;48.092;11.574;2023-02-14T01:25:39;43.47;;;26.13;;
27428;SDS011;14881;48.092;11.574;2023-02-14T01:28:06;45.47;;;27.02;;
27428;SDS011;14881;48.092;11.574;2023-02-14T01:30:35;44.97;;;25.63;;
27428;SDS011;14881;48.092;11.574;2023-02-14T01:33:09;51.00;;;25.47;;
27428;SDS011;14881;48.092;11.574;2023-02-14T01:35:36;48.13;;;25.50;;
27428;SDS011;14881;48.092;11.574;2023-02-14T01:38:05;54.25;;;26.05;;
27428;SDS011;14881;48.092;11.574;2023-02-14T01:40:32;42.30;;;26.00;;
27428;SDS011;14881;48.092;11.574;2023-02-14T01:43:00;40.28;;;24.02;;
27428;SDS011;14881;48.092;11.574;2023-02-14T01:45:28;41.58;;;23.05;;
27428;SDS011;14881;48.092;11.574;2023-02-14T01:47:58;41.45;;;23.65;;
27428;SDS011;14881;48.092;11.574;2023-02-14T01:50:27;46.67;;;24.35;;
27428;SDS011;14881;48.092;11.574;2023-02-14T01:53:01;36.58;;;21.98;;
27428;SDS011;14881;48.092;11.574;2023-02-14T01:55:31;36.08;;;21.95;;
27428;SDS011;14881;48.092;11.574;2023-02-14T01:58:03;33.47;;;21.63;;
27428;SDS011;14881;48.092;11.574;2023-02-14T02:00:35;40.88;;;23.60;;
27428;SDS011;14881;48.092;11.574;2023-02-14T02:03:22;49.58;;;25.77;;
27428;SDS011;14881;48.092;11.574;2023-02-14T02:05:53;45.78;;;24.92;;
27428;SDS011;14881;48.092;11.574;2023-02-14T02:08:25;44.60;;;26.00;;
27428;SDS011;14881;48.092;11.574;2023-02-14T02:10:53;49.70;;;26.95;;
27428;SDS011;14881;48.092;11.574;2023-02-14T02:13:21;43.78;;;25.98;;
27428;SDS011;14881;48.092;11.574;2023-02-14T02:15:51;89.47;;;26.92;;
27428;SDS011;14881;48.092;11.574;2023-02-14T02:18:29;44.90;;;25.83;;
27428;SDS011;14881;48.092;11.574;2023-02-14T02:24:16;66.47;;;25.85;;
27428;SDS011;14881;48.092;11.574;2023-02-14T02:32:56;45.55;;;24.67;;
27428;SDS011;14881;48.092;11.574;2023-02-14T02:38:37;57.47;;;25.60;;
27428;SDS011;14881;48.092;11.574;2023-02-14T02:41:16;43.47;;;24.23;;
27428;SDS011;14881;48.092;11.574;2023-02-14T02:43:53;47.20;;;24.42;;
27428;SDS011;14881;48.092;11.574;2023-02-14T02:46:30;50.40;;;24.48;;
27428;SDS011;14881;48.092;11.574;2023-02-14T02:49:20;45.30;;;24.75;;
27428;SDS011;14881;48.092;11.574;2023-02-14T02:52:18;80.28;;;26.13;;
27428;SDS011;14881;48.092;11.574;2023-02-14T02:55:11;41.47;;;25.17;;
27428;SDS011;14881;48.092;11.574;2023-02-14T02:57:42;56.78;;;25.63;;
27428;SDS011;14881;48.092;11.574;2023-02-14T03:00:10;47.88;;;25.98;;
27428;SDS011;14881;48.092;11.574;2023-02-14T03:02:43;45.33;;;24.92;;
27428;SDS011;14881;48.092;11.574;2023-02-14T03:05:31;47.28;;;24.45;;
27428;SDS011;14881;48.092;11.574;2023-02-14T03:08:02;44.30;;;25.17;;
27428;SDS011;14881;48.092;11.574;2023-02-14T03:10:31;45.00;;;25.98;;
27428;SDS011;14881;48.092;11.574;2023-02-14T03:15:55;46.53;;;23.35;;
27428;SDS011;14881;48.092;11.574;2023-02-14T03:18:43;49.05;;;24.33;;
27428;SDS011;14881;48.092;11.574;2023-02-14T03:21:25;53.53;;;24.42;;
27428;SDS011;14881;48.092;11.574;2023-02-14T03:24:01;55.17;;;23.10;;
27428;SDS011;14881;48.092;11.574;2023-02-14T03:26:36;44.53;;;25.65;;
27428;SDS011;14881;48.092;11.574;2023-02-14T03:29:11;44.95;;;25.35;;
27428;SDS011;14881;48.092;11.574;2023-02-14T03:31:46;47.17;;;24.77;;
27428;SDS011;14881;48.092;11.574;2023-02-14T03:34:22;43.92;;;23.65;;
27428;SDS011;14881;48.092;11.574;2023-02-14T03:36:57;61.25;;;25.58;;
27428;SDS011;14881;48.092;11.574;2023-02-14T03:39:30;64.13;;;27.33;;
27428;SDS011;14881;48.092;11.574;2023-02-14T03:42:03;46.42;;;25.55;;
27428;SDS011;14881;48.092;11.574;2023-02-14T03:44:35;48.22;;;25.85;;
27428;SDS011;14881;48.092;11.574;2023-02-14T03:47:06;48.92;;;25.80;;
27428;SDS011;14881;48.092;11.574;2023-02-14T03:49:39;48.03;;;24.73;;
27428;SDS011;14881;48.092;11.574;2023-02-14T03:52:09;48.33;;;25.98;;
27428;SDS011;14881;48.092;11.574;2023-02-14T03:54:40;59.63;;;25.83;;
27428;SDS011;14881;48.092;11.574;2023-02-14T03:57:11;46.03;;;24.60;;
27428;SDS011;14881;48.092;11.574;2023-02-14T03:59:46;44.92;;;25.08;;
27428;SDS011;14881;48.092;11.574;2023-02-14T04:02:16;40.88;;;24.40;;
27428;SDS011;14881;48.092;11.574;2023-02-14T04:04:48;44.05;;;23.73;;
27428;SDS011;14881;48.092;11.574;2023-02-14T04:07:20;43.22;;;23.70;;
27428;SDS011;14881;48.092;11.574;2023-02-14T04:09:50;46.88;;;23.88;;
27428;SDS011;14881;48.092;11.574;2023-02-14T04:12:18;47.22;;;22.15;;
27428;SDS011;14881;48.092;11.574;2023-02-14T04:15:02;50.05;;;23.48;;
27428;SDS011;14881;48.092;11.574;2023-02-14T04:17:30;46.17;;;23.45;;
27428;SDS011;14881;48.092;11.574;2023-02-14T04:20:15;36.95;;;22.17;;
27428;SDS011;14881;48.092;11.574;2023-02-14T04:22:43;39.67;;;22.45;;
27428;SDS011;14881;48.092;11.574;2023-02-14T04:25:13;42.47;;;23.63;;
27428;SDS011;14881;48.092;11.574;2023-02-14T04:27:41;39.33;;;23.55;;
27428;SDS011;14881;48.092;11.574;2023-02-14T04:30:09;40.22;;;23.40;;
27428;SDS011;14881;48.092;11.574;2023-02-14T04:32:38;45.10;;;25.13;;
27428;SDS011;14881;48.092;11.574;2023-02-14T04:35:10;42.17;;;24.17;;
27428;SDS011;14881;48.092;11.574;2023-02-14T04:37:38;47.95;;;24.65;;
27428;SDS011;14881;48.092;11.574;2023-02-14T04:40:06;40.33;;;23.23;;
27428;SDS011;14881;48.092;11.574;2023-02-14T04:42:36;43.35;;;24.13;;
27428;SDS011;14881;48.092;11.574;2023-02-14T04:45:04;50.85;;;25.23;;
27428;SDS011;14881;48.092;11.574;2023-02-14T04:47:32;44.28;;;23.65;;
27428;SDS011;14881;48.092;11.574;2023-02-14T04:50:00;60.70;;;24.08;;
27428;SDS011;14881;48.092;11.574;2023-02-14T04:52:30;45.28;;;22.90;;
27428;SDS011;14881;48.092;11.574;2023-02-14T04:54:58;57.65;;;24.75;;
27428;SDS011;14881;48.092;11.574;2023-02-14T04:57:25;67.60;;;22.33;;
27428;SDS011;14881;48.092;11.574;2023-02-14T04:59:55;76.35;;;23.17;;
27428;SDS011;14881;48.092;11.574;2023-02-14T05:02:22;50.03;;;21.60;;
27428;SDS011;14881;48.092;11.574;2023-02-14T05:04:50;39.28;;;21.02;;
27428;SDS011;14881;48.092;11.574;2023-02-14T05:07:18;57.10;;;21.77;;
27428;SDS011;14881;48.092;11.574;2023-02-14T05:09:46;50.95;;;22.23;;
27428;SDS011;14881;48.092;11.574;2023-02-14T05:12:14;45.83;;;22.73;;
27428;SDS011;14881;48.092;11.574;2023-02-14T05:14:42;62.20;;;22.13;;
27428;SDS011;14881;48.092;11.574;2023-02-14T05:17:14;42.05;;;21.98;;
27428;SDS011;14881;48.092;11.574;2023-02-14T05:19:42;49.47;;;21.40;;
27428;SDS011;14881;48.092;11.574;2023-02-14T05:22:10;34.35;;;19.95;;
27428;SDS011;14881;48.092;11.574;2023-02-14T05:24:38;50.50;;;21.60;;
27428;SDS011;14881;48.092;11.574;2023-02-14T05:27:05;34.80;;;19.90;;
27428;SDS011;14881;48.092;11.574;2023-02-14T05:29:36;89.72;;;23.17;;
27428;SDS011;14881;48.092;11.574;2023-02-14T05:32:04;40.92;;;22.52;;
27428;SDS011;14881;48.092;11.574;2023-02-14T05:34:33;37.47;;;21.38;;
27428;SDS011;14881;48.092;11.574;2023-02-14T05:37:01;41.25;;;21.83;;
27428;SDS011;14881;48.092;11.574;2023-02-14T05:39:29;46.63;;;22.63;;
27428;SDS011;14881;48.092;11.574;2023-02-14T05:41:57;51.42;;;23.20;;
27428;SDS011;14881;48.092;11.574;2023-02-14T05:44:24;44.30;;;22.33;;
27428;SDS011;14881;48.092;11.574;2023-02-14T05:46:53;72.13;;;23.17;;
27428;SDS011;14881;48.092;11.574;2023-02-14T05:49:21;44.58;;;22.38;;
27428;SDS011;14881;48.092;11.574;2023-02-14T05:51:50;39.50;;;22.70;;
27428;SDS011;14881;48.092;11.574;2023-02-14T05:54:18;39.22;;;22.48;;
27428;SDS011;14881;48.092;11.574;2023-02-14T05:56:46;50.63;;;23.75;;
27428;SDS011;14881;48.092;11.574;2023-02-14T05:59:13;47.97;;;24.52;;
27428;SDS011;14881;48.092;11.574;2023-02-14T06:01:41;66.78;;;26.05;;
27428;SDS011;14881;48.092;11.574;2023-02-14T06:04:09;67.70;;;24.90;;
27428;SDS011;14881;48.092;11.574;2023-02-14T06:06:37;47.28;;;24.83;;
27428;SDS011;14881;48.092;11.574;2023-02-14T06:09:06;48.63;;;23.05;;
27428;SDS011;14881;48.092;11.574;2023-02-14T06:11:34;52.85;;;24.30;;
27428;SDS011;14881;48.092;11.574;2023-02-14T06:14:02;40.38;;;22.83;;
27428;SDS011;14881;48.092;11.574;2023-02-14T06:16:30;50.90;;;24.30;;
27428;SDS011;14881;48.092;11.574;2023-02-14T06:18:58;40.75;;;23.15;;
27428;SDS011;14881;48.092;11.574;2023-02-14T06:21:25;49.35;;;25.33;;
27428;SDS011;14881;48.092;11.574;2023-02-14T06:23:53;70.50;;;24.02;;
27428;SDS011;14881;48.092;11.574;2023-02-14T06:26:22;48.50;;;23.35;;
27428;SDS011;14881;48.092;11.574;2023-02-14T06:28:53;42.50;;;24.42;;
27428;SDS011;14881;48.092;11.574;2023-02-14T06:31:21;42.22;;;23.63;;
27428;SDS011;14881;48.092;11.574;2023-02-14T06:33:49;44.60;;;23.60;;
27428;SDS011;14881;48.092;11.574;2023-02-14T06:36:17;43.15;;;22.30;;
27428;SDS011;14881;48.092;11.574;2023-02-14T06:38:45;36.42;;;21.17;;
27428;SDS011;14881;48.092;11.574;2023-02-14T06:41:14;40.55;;;23.23;;
27428;SDS011;14881;48.092;11.574;2023-02-14T06:43:45;43.78;;;23.63;;
27428;SDS011;14881;48.092;11.574;2023-02-14T06:46:14;42.22;;;23.08;;
27428;SDS011;14881;48.092;11.574;2023-02-14T06:48:43;46.33;;;24.20;;
27428;SDS011;14881;48.092;11.574;2023-02-14T06:51:11;42.13;;;23.85;;
27428;SDS011;14881;48.092;11.574;2023-02-14T06:53:39;44.15;;;24.73;;
27428;SDS011;14881;48.092;11.574;2023-02-14T06:56:06;40.53;;;24.00;;
27428;SDS011;14881;48.092;11.574;2023-02-14T07:01:28;38.40;;;22.63;;
27428;SDS011;14881;48.092;11.574;2023-02-14T07:03:56;43.72;;;22.67;;
27428;SDS011;14881;48.092;11.574;2023-02-14T07:06:24;44.53;;;21.17;;
27428;SDS011;14881;48.092;11.574;2023-02-14T07:08:54;37.70;;;20.00;;
27428;SDS011;14881;48.092;11.574;2023-02-14T07:11:22;39.65;;;20.42;;
27428;SDS011;14881;48.092;11.574;2023-02-14T07:13:51;43.47;;;20.10;;
27428;SDS011;14881;48.092;11.574;2023-02-14T07:16:20;49.17;;;21.17;;
27428;SDS011;14881;48.092;11.574;2023-02-14T07:18:47;35.60;;;20.35;;
27428;SDS011;14881;48.092;11.574;2023-02-14T07:21:15;47.55;;;21.05;;
27428;SDS011;14881;48.092;11.574;2023-02-14T07:23:43;34.70;;;19.77;;
27428;SDS011;14881;48.092;11.574;2023-02-14T07:26:13;38.60;;;20.83;;
27428;SDS011;14881;48.092;11.574;2023-02-14T07:28:43;34.28;;;21.35;;
27428;SDS011;14881;48.092;11.574;2023-02-14T07:31:11;36.25;;;21.90;;
27428;SDS011;14881;48.092;11.574;2023-02-14T07:33:40;42.63;;;21.95;;
27428;SDS011;14881;48.092;11.574;2023-02-14T07:36:11;38.03;;;21.73;;
27428;SDS011;14881;48.092;11.574;2023-02-14T07:38:41;32.25;;;19.85;;
27428;SDS011;14881;48.092;11.574;2023-02-14T07:41:09;40.67;;;22.40;;
27428;SDS011;14881;48.092;11.574;2023-02-14T07:43:37;37.88;;;21.45;;
27428;SDS011;14881;48.092;11.574;2023-02-14T07:46:05;51.28;;;22.17;;
27428;SDS011;14881;48.092;11.574;2023-02-14T07:48:33;34.45;;;20.98;;
27428;SDS011;14881;48.092;11.574;2023-02-14T07:51:02;38.65;;;21.40;;
27428;SDS011;14881;48.092;11.574;2023-02-14T07:53:30;34.80;;;20.55;;
27428;SDS011;14881;48.092;11.574;2023-02-14T07:55:58;59.65;;;22.58;;
27428;SDS011;14881;48.092;11.574;2023-02-14T07:58:26;35.05;;;21.00;;
27428;SDS011;14881;48.092;11.574;2023-02-14T08:00:54;41.75;;;21.35;;
27428;SDS011;14881;48.092;11.574;2023-02-14T08:03:22;36.97;;;21.00;;
27428;SDS011;14881;48.092;11.574;2023-02-14T08:05:50;34.92;;;20.30;;
27428;SDS011;14881;48.092;11.574;2023-02-14T08:08:24;42.58;;;22.23;;
27428;SDS011;14881;48.092;11.574;2023-02-14T08:10:53;40.50;;;22.75;;
27428;SDS011;14881;48.092;11.574;2023-02-14T08:13:20;44.92;;;21.95;;
27428;SDS011;14881;48.092;11.574;2023-02-14T08:15:48;37.47;;;21.52;;
27428;SDS011;14881;48.092;11.574;2023-02-14T08:18:33;37.90;;;21.38;;
27428;SDS011;14881;48.092;11.574;2023-02-14T08:21:03;35.25;;;21.67;;
27428;SDS011;14881;48.092;11.574;2023-02-14T08:23:33;37.65;;;21.10;;
27428;SDS011;14881;48.092;11.574;2023-02-14T08:26:02;35.17;;;20.58;;
27428;SDS011;14881;48.092;11.574;2023-02-14T08:28:30;33.63;;;20.33;;
27428;SDS011;14881;48.092;11.574;2023-02-14T08:30:58;34.05;;;19.83;;
27428;SDS011;14881;48.092;11.574;2023-02-14T08:33:28;32.63;;;19.20;;
27428;SDS011;14881;48.092;11.574;2023-02-14T08:35:56;31.08;;;19.48;;
27428;SDS011;14881;48.092;11.574;2023-02-14T08:38:24;35.63;;;19.77;;
27428;SDS011;14881;48.092;11.574;2023-02-14T08:40:53;32.53;;;19.63;;
27428;SDS011;14881;48.092;11.574;2023-02-14T08:43:21;33.30;;;19.63;;
27428;SDS011;14881;48.092;11.574;2023-02-14T08:45:51;37.10;;;20.45;;
27428;SDS011;14881;48.092;11.574;2023-02-14T08:48:19;37.53;;;21.30;;
27428;SDS011;14881;48.092;11.574;2023-02-14T08:50:48;36.13;;;20.98;;
27428;SDS011;14881;48.092;11.574;2023-02-14T08:53:16;32.58;;;20.38;;
27428;SDS011;14881;48.092;11.574;2023-02-14T08:55:44;33.97;;;20.38;;
27428;SDS011;14881;48.092;11.574;2023-02-14T08:58:13;31.92;;;20.50;;
27428;SDS011;14881;48.092;11.574;2023-02-14T09:00:41;34.80;;;20.10;;
27428;SDS011;14881;48.092;11.574;2023-02-14T09:03:09;38.40;;;21.45;;
27428;SDS011;14881;48.092;11.574;2023-02-14T09:05:38;32.63;;;20.10;;
27428;SDS011;14881;48.092;11.574;2023-02-14T09:08:06;31.30;;;19.80;;
27428;SDS011;14881;48.092;11.574;2023-02-14T09:10:34;31.33;;;19.23;;
27428;SDS011;14881;48.092;11.574;2023-02-14T09:13:03;30.17;;;19.65;;
27428;SDS011;14881;48.092;11.574;2023-02-14T09:15:32;35.50;;;20.25;;
27428;SDS011;14881;48.092;11.574;2023-02-14T09:18:02;34.03;;;20.10;;
27428;SDS011;14881;48.092;11.574;2023-02-14T09:20:29;32.83;;;19.48;;
27428;SDS011;14881;48.092;11.574;2023-02-14T09:22:59;36.28;;;20.55;;
27428;SDS011;14881;48.092;11.574;2023-02-14T09:25:27;33.90;;;20.40;;
27428;SDS011;14881;48.092;11.574;2023-02-14T09:27:56;30.25;;;18.67;;
27428;SDS011;14881;48.092;11.574;2023-02-14T09:30:26;31.23;;;19.23;;
27428;SDS011;14881;48.092;11.574;2023-02-14T09:32:55;31.38;;;19.25;;
27428;SDS011;14881;48.092;11.574;2023-02-14T09:35:23;32.47;;;20.65;;
27428;SDS011;14881;48.092;11.574;2023-02-14T09:37:51;33.65;;;19.80;;
27428;SDS011;14881;48.092;11.574;2023-02-14T09:40:18;28.98;;;18.52;;
27428;SDS011;14881;48.092;11.574;2023-02-14T09:42:55;32.22;;;20.60;;
27428;SDS011;14881;48.092;11.574;2023-02-14T09:45:28;32.30;;;20.48;;
27428;SDS011;14881;48.092;11.574;2023-02-14T09:48:00;30.40;;;19.45;;
27428;SDS011;14881;48.092;11.574;2023-02-14T09:50:36;34.53;;;20.00;;
27428;SDS011;14881;48.092;11.574;2023-02-14T09:53:12;38.40;;;21.67;;
27428;SDS011;14881;48.092;11.574;2023-02-14T09:55:47;36.45;;;21.60;;
27428;SDS011;14881;48.092;11.574;2023-02-14T10:00:55;32.45;;;19.35;;
27428;SDS011;14881;48.092;11.574;2023-02-14T10:03:37;34.00;;;20.75;;
27428;SDS011;14881;48.092;11.574;2023-02-14T10:06:18;35.92;;;21.23;;
27428;SDS011;14881;48.092;11.574;2023-02-14T10:09:07;32.17;;;20.45;;
27428;SDS011;14881;48.092;11.574;2023-02-14T10:11:42;32.38;;;19.95;;
27428;SDS011;14881;48.092;11.574;2023-02-14T10:14:13;28.30;;;18.90;;
27428;SDS011;14881;48.092;11.574;2023-02-14T10:16:44;27.98;;;18.88;;
27428;SDS011;14881;48.092;11.574;2023-02-14T10:19:20;26.10;;;18.52;;
27428;SDS011;14881;48.092;11.574;2023-02-14T10:21:54;29.77;;;19.38;;
27428;SDS011;14881;48.092;11.574;2023-02-14T10:24:26;29.40;;;18.77;;
27428;SDS011;14881;48.092;11.574;2023-02-14T10:27:00;36.70;;;18.08;;
27428;SDS011;14881;48.092;11.574;2023-02-14T10:29:36;30.85;;;17.70;;
27428;SDS011;14881;48.092;11.574;2023-02-14T10:32:04;26.80;;;17.63;;
27428;SDS011;14881;48.092;11.574;2023-02-14T10:34:42;28.20;;;18.50;;
27428;SDS011;14881;48.092;11.574;2023-02-14T10:37:17;24.60;;;17.77;;
27428;SDS011;14881;48.092;11.574;2023-02-14T10:39:57;24.55;;;17.88;;
27428;SDS011;14881;48.092;11.574;2023-02-14T10:45:26;28.90;;;18.30;;
27428;SDS011;14881;48.092;11.574;2023-02-14T10:50:36;28.20;;;19.27;;
27428;SDS011;14881;48.092;11.574;2023-02-14T10:53:12;24.23;;;18.35;;
27428;SDS011;14881;48.092;11.574;2023-02-14T10:55:46;29.45;;;19.92;;
27428;SDS011;14881;48.092;11.574;2023-02-14T10:58:19;23.00;;;17.35;;
27428;SDS011;14881;48.092;11.574;2023-02-14T11:00:51;28.58;;;19.88;;
27428;SDS011;14881;48.092;11.574;2023-02-14T11:03:24;25.65;;;18.17;;
27428;SDS011;14881;48.092;11.574;2023-02-14T11:05:55;27.50;;;19.55;;
27428;SDS011;14881;48.092;11.574;2023-02-14T11:08:24;28.55;;;19.13;;
27428;SDS011;14881;48.092;11.574;2023-02-14T11:10:53;32.00;;;19.60;;
27428;SDS011;14881;48.092;11.574;2023-02-14T11:13:27;28.05;;;18.55;;
27428;SDS011;14881;48.092;11.574;2023-02-14T11:16:00;33.15;;;18.88;;
27428;SDS011;14881;48.092;11.574;2023-02-14T11:18:29;29.58;;;18.33;;
27428;SDS011;14881;48.092;11.574;2023-02-14T11:21:03;27.48;;;18.77;;
27428;SDS011;14881;48.092;11.574;2023-02-14T11:23:35;25.73;;;18.30;;
27428;SDS011;14881;48.092;11.574;2023-02-14T11:26:07;29.25;;;19.10;;
27428;SDS011;14881;48.092;11.574;2023-02-14T11:28:45;32.25;;;19.27;;
27428;SDS011;14881;48.092;11.574;2023-02-14T11:31:24;27.67;;;16.85;;
27428;SDS011;14881;48.092;11.574;2023-02-14T11:33:56;34.97;;;18.60;;
27428;SDS011;14881;48.092;11.574;2023-02-14T11:36:29;28.48;;;18.02;;
27428;SDS011;14881;48.092;11.574;2023-02-14T11:39:00;25.98;;;19.08;;
27428;SDS011;14881;48.092;11.574;2023-02-14T11:41:45;31.67;;;18.55;;
27428;SDS011;14881;48.092;11.574;2023-02-14T11:44:15;22.17;;;17.58;;
27428;SDS011;14881;48.092;11.574;2023-02-14T11:46:48;30.20;;;19.33;;
27428;SDS011;14881;48.092;11.574;2023-02-14T11:49:26;25.75;;;18.13;;
27428;SDS011;14881;48.092;11.574;2023-02-14T11:51:58;27.77;;;18.77;;
27428;SDS011;14881;48.092;11.574;2023-02-14T11:54:29;28.88;;;19.80;;
27428;SDS011;14881;48.092;11.574;2023-02-14T11:57:01;28.02;;;20.25;;
27428;SDS011;14881;48.092;11.574;2023-02-14T11:59:36;28.95;;;20.13;;
27428;SDS011;14881;48.092;11.574;2023-02-14T12:02:12;31.60;;;20.17;;
27428;SDS011;14881;48.092;11.574;2023-02-14T12:04:48;28.65;;;20.40;;
27428;SDS011;14881;48.092;11.574;2023-02-14T12:07:20;31.13;;;20.58;;
27428;SDS011;14881;48.092;11.574;2023-02-14T12:12:47;31.40;;;19.95;;
27428;SDS011;14881;48.092;11.574;2023-02-14T12:15:24;30.92;;;20.48;;
27428;SDS011;14881;48.092;11.574;2023-02-14T12:17:57;34.83;;;21.17;;
27428;SDS011;14881;48.092;11.574;2023-02-14T12:20:32;29.40;;;21.33;;
27428;SDS011;14881;48.092;11.574;2023-02-14T12:23:08;30.08;;;20.35;;
27428;SDS011;14881;48.092;11.574;2023-02-14T12:25:43;31.80;;;21.27;;
27428;SDS011;14881;48.092;11.574;2023-02-14T12:28:17;31.13;;;21.10;;
27428;SDS011;14881;48.092;11.574;2023-02-14T12:30:48;33.30;;;20.67;;
27428;SDS011;14881;48.092;11.574;2023-02-14T12:33:17;30.33;;;20.50;;
27428;SDS011;14881;48.092;11.574;2023-02-14T12:35:50;29.27;;;20.00;;
27428;SDS011;14881;48.092;11.574;2023-02-14T12:38:29;30.20;;;21.10;;
27428;SDS011;14881;48.092;11.574;2023-02-14T12:41:14;26.83;;;20.65;;
27428;SDS011;14881;48.092;11.574;2023-02-14T12:43:52;28.13;;;19.13;;
27428;SDS011;14881;48.092;11.574;2023-02-14T12:46:30;29.00;;;20.10;;
27428;SDS011;14881;48.092;11.574;2023-02-14T12:49:12;30.10;;;20.70;;
27428;SDS011;14881;48.092;11.574;2023-02-14T12:51:54;39.92;;;20.95;;
27428;SDS011;14881;48.092;11.574;2023-02-14T12:54:40;35.28;;;20.38;;
27428;SDS011;14881;48.092;11.574;2023-02-14T12:57:18;35.80;;;21.75;;
27428;SDS011;14881;48.092;11.574;2023-02-14T13:00:03;34.08;;;22.75;;
27428;SDS011;14881;48.092;11.574;2023-02-14T13:02:50;30.25;;;21.27;;
27428;SDS011;14881;48.092;11.574;2023-02-14T13:05:43;30.48;;;21.13;;
27428;SDS011;14881;48.092;11.574;2023-02-14T13:08:24;33.35;;;20.67;;
27428;SDS011;14881;48.092;11.574;2023-02-14T13:11:07;41.30;;;21.00;;
27428;SDS011;14881;48.092;11.574;2023-02-14T13:13:46;33.60;;;21.58;;
27428;SDS011;14881;48.092;11.574;2023-02-14T13:16:22;37.28;;;20.70;;
27428;SDS011;14881;48.092;11.574;2023-02-14T13:18:58;31.87;;;21.43;;
27428;SDS011;14881;48.092;11.574;2023-02-14T13:21:33;25.13;;;19.50;;
27428;SDS011;14881;48.092;11.574;2023-02-14T13:24:11;27.42;;;19.75;;
27428;SDS011;14881;48.092;11.574;2023-02-14T13:26:47;25.77;;;21.08;;
27428;SDS011;14881;48.092;11.574;2023-02-14T13:29:19;35.30;;;21.52;;
27428;SDS011;14881;48.092;11.574;2023-02-14T13:31:50;30.88;;;21.23;;
27428;SDS011;14881;48.092;11.574;2023-02-14T13:34:24;34.47;;;21.60;;
27428;SDS011;14881;48.092;11.574;2023-02-14T13:36:59;33.55;;;21.13;;
27428;SDS011;14881;48.092;11.574;2023-02-14T13:39:30;30.63;;;20.92;;
27428;SDS011;14881;48.092;11.574;2023-02-14T13:42:05;34.00;;;20.88;;
27428;SDS011;14881;48.092;11.574;2023-02-14T13:44:43;28.38;;;19.80;;
27428;SDS011;14881;48.092;11.574;2023-02-14T13:47:16;28.33;;;18.90;;
27428;SDS011;14881;48.092;11.574;2023-02-14T13:49:46;26.55;;;17.90;;
27428;SDS011;14881;48.092;11.574;2023-02-14T13:55:07;31.67;;;18.98;;
27428;SDS011;14881;48.092;11.574;2023-02-14T13:57:42;29.08;;;18.67;;
27428;SDS011;14881;48.092;11.574;2023-02-14T14:03:11;27.33;;;18.13;;
27428;SDS011;14881;48.092;11.574;2023-02-14T14:05:48;32.30;;;18.50;;
27428;SDS011;14881;48.092;11.574;2023-02-14T14:08:42;31.77;;;18.63;;
27428;SDS011;14881;48.092;11.574;2023-02-14T14:14:34;30.10;;;18.95;;
27428;SDS011;14881;48.092;11.574;2023-02-14T14:19:54;29.10;;;18.05;;
27428;SDS011;14881;48.092;11.574;2023-02-14T14:22:23;27.15;;;18.25;;
27428;SDS011;14881;48.092;11.574;2023-02-14T14:24:52;28.13;;;17.75;;
27428;SDS011;14881;48.092;11.574;2023-02-14T14:27:23;27.13;;;18.13;;
27428;SDS011;14881;48.092;11.574;2023-02-14T14:29:55;25.92;;;16.98;;
27428;SDS011;14881;48.092;11.574;2023-02-14T14:32:25;29.40;;;17.40;;
27428;SDS011;14881;48.092;11.574;2023-02-14T14:34:56;26.98;;;16.52;;
27428;SDS011;14881;48.092;11.574;2023-02-14T14:37:25;33.55;;;17.40;;
27428;SDS011;14881;48.092;11.574;2023-02-14T14:39:55;27.83;;;18.52;;
27428;SDS011;14881;48.092;11.574;2023-02-14T14:42:25;26.05;;;16.85;;
27428;SDS011;14881;48.092;11.574;2023-02-14T14:44:58;26.52;;;16.55;;
27428;SDS011;14881;48.092;11.574;2023-02-14T14:47:28;25.50;;;17.15;;
27428;SDS011;14881;48.092;11.574;2023-02-14T14:50:03;24.20;;;17.08;;
27428;SDS011;14881;48.092;11.574;2023-02-14T14:52:35;27.30;;;18.40;;
27428;SDS011;14881;48.092;11.574;2023-02-14T14:55:07;27.80;;;17.85;;
27428;SDS011;14881;48.092;11.574;2023-02-14T14:57:47;24.02;;;17.85;;
27428;SDS011;14881;48.092;11.574;2023-02-14T15:00:28;30.55;;;19.10;;
27428;SDS011;14881;48.092;11.574;2023-02-14T15:03:03;29.77;;;18.20;;
27428;SDS011;14881;48.092;11.574;2023-02-14T15:05:34;30.42;;;19.15;;
27428;SDS011;14881;48.092;11.574;2023-02-14T15:08:18;29.13;;;18.35;;
27428;SDS011;14881;48.092;11.574;2023-02-14T15:10:50;27.85;;;19.27;;
27428;SDS011;14881;48.092;11.574;2023-02-14T15:13:22;27.25;;;18.75;;
27428;SDS011;14881;48.092;11.574;2023-02-14T15:16:18;39.97;;;20.35;;